createdAt,value
2022-11-05T13:05:00.193Z,15.4
2022-11-05T13:10:00.204Z,15.2
2022-11-05T13:15:00.259Z,15.0
2022-11-05T13:20:00.164Z,15.0
2022-11-05T13:25:00.207Z,15.0
2022-11-05T13:30:00.370Z,15.0
2022-11-05T13:35:00.168Z,14.9
2022-11-05T13:40:00.227Z,14.9
2022-11-05T13:45:00.220Z,14.9
2022-11-05T13:50:00.216Z,14.8
2022-11-05T13:55:00.194Z,14.9
2022-11-05T14:00:00.210Z,14.9
2022-11-05T14:05:01.593Z,14.9
2022-11-05T14:10:00.195Z,14.9
2022-11-05T14:15:00.189Z,14.9
2022-11-05T14:20:00.196Z,14.9
2022-11-05T14:25:00.228Z,14.9
2022-11-05T14:30:00.232Z,14.8
2022-11-05T14:35:00.189Z,14.8
2022-11-05T14:40:00.205Z,14.7
2022-11-05T14:45:00.205Z,14.7
2022-11-05T14:50:00.274Z,14.5
2022-11-05T14:55:00.188Z,14.4
2022-11-05T15:00:00.237Z,14.3
2022-11-05T15:05:00.258Z,14.1
2022-11-05T15:10:02.342Z,14.1
2022-11-05T15:15:00.217Z,14.0
2022-11-05T15:20:00.220Z,13.9
2022-11-05T15:25:00.199Z,13.8
2022-11-05T15:30:00.198Z,13.8
2022-11-05T15:35:00.214Z,13.7
2022-11-05T15:40:00.204Z,13.6
2022-11-05T15:45:00.228Z,13.5
2022-11-05T15:50:00.221Z,13.5
2022-11-05T15:55:00.179Z,13.4
2022-11-05T16:00:01.529Z,13.3
2022-11-05T16:05:00.174Z,13.3
2022-11-05T16:10:00.208Z,13.2
2022-11-05T16:15:00.200Z,13.2
2022-11-05T16:20:00.318Z,13.2
2022-11-05T16:25:00.185Z,13.1
2022-11-05T16:30:00.233Z,13.1
2022-11-05T16:35:00.188Z,13.0
2022-11-05T16:40:00.332Z,13.0
2022-11-05T16:45:00.221Z,12.9
2022-11-05T16:50:00.182Z,12.9
2022-11-05T16:55:00.236Z,12.9
2022-11-05T17:00:00.187Z,12.9
2022-11-05T17:05:00.215Z,12.9
2022-11-05T17:10:00.200Z,12.8
2022-11-05T17:15:00.228Z,12.8
2022-11-05T17:20:00.193Z,12.7
2022-11-05T17:25:00.196Z,12.7
2022-11-05T17:30:00.208Z,12.6
2022-11-05T17:35:00.159Z,12.5
2022-11-05T17:40:00.263Z,12.5
2022-11-05T17:45:00.172Z,12.4
2022-11-05T17:50:00.212Z,12.4
2022-11-05T17:55:00.213Z,12.4
2022-11-05T18:00:00.230Z,12.4
2022-11-05T18:05:00.165Z,12.3
2022-11-05T18:10:00.218Z,12.3
2022-11-05T18:15:00.203Z,12.2
2022-11-05T18:20:00.213Z,12.2
2022-11-05T18:25:00.163Z,12.2
2022-11-05T18:30:00.210Z,12.1
2022-11-05T18:35:00.180Z,12.1
2022-11-05T18:40:00.219Z,12.0
2022-11-05T18:45:00.165Z,12.0
2022-11-05T18:50:00.201Z,12.0
2022-11-05T18:55:00.188Z,11.9
2022-11-05T19:00:00.205Z,11.8
2022-11-05T19:05:27.356Z,11.8
2022-11-05T19:10:00.168Z,11.7
2022-11-05T19:15:02.865Z,11.7
2022-11-05T19:20:00.199Z,11.7
2022-11-05T19:25:00.184Z,11.7
2022-11-05T19:30:00.215Z,11.7
2022-11-05T19:35:00.191Z,11.7
2022-11-05T19:40:00.189Z,11.7
2022-11-05T19:45:16.635Z,11.7
2022-11-05T19:50:00.212Z,11.6
2022-11-05T19:55:00.211Z,11.6
2022-11-05T20:00:00.190Z,11.7
2022-11-05T20:05:01.396Z,11.7
2022-11-05T20:10:00.179Z,11.6
2022-11-05T20:15:00.191Z,11.6
2022-11-05T20:20:00.227Z,11.6
2022-11-05T20:25:00.211Z,11.6
2022-11-05T20:30:00.177Z,11.6
2022-11-05T20:35:00.206Z,11.6
2022-11-05T20:40:00.164Z,11.6
2022-11-05T20:45:00.192Z,11.6
2022-11-05T20:50:00.171Z,11.6
2022-11-05T20:55:00.215Z,11.6
2022-11-05T21:00:00.239Z,11.6
2022-11-05T21:05:00.193Z,11.6
2022-11-05T21:10:00.156Z,11.5
2022-11-05T21:15:00.238Z,11.5
2022-11-05T21:20:00.237Z,11.5
2022-11-05T21:25:00.198Z,11.5
2022-11-05T21:30:00.199Z,11.5
2022-11-05T21:35:00.186Z,11.5
2022-11-05T21:40:00.169Z,11.5
2022-11-05T21:45:00.815Z,11.5
2022-11-05T21:50:00.152Z,11.5
2022-11-05T21:55:00.192Z,11.5
2022-11-05T22:00:00.332Z,11.5
2022-11-05T22:05:00.271Z,11.4
2022-11-05T22:10:00.197Z,11.4
2022-11-05T22:15:00.245Z,11.4
2022-11-05T22:20:00.213Z,11.4
2022-11-05T22:25:00.233Z,11.4
2022-11-05T22:30:00.169Z,11.4
2022-11-05T22:35:00.189Z,11.4
2022-11-05T22:40:00.205Z,11.4
2022-11-05T22:45:00.179Z,11.3
2022-11-05T22:50:00.264Z,11.3
2022-11-05T22:55:00.169Z,11.3
2022-11-05T23:00:00.271Z,11.3
2022-11-05T23:05:00.205Z,11.3
2022-11-05T23:10:00.242Z,11.3
2022-11-05T23:15:00.170Z,11.3
2022-11-05T23:20:00.216Z,11.3
2022-11-05T23:25:00.214Z,11.3
2022-11-05T23:30:00.196Z,11.3
2022-11-05T23:35:00.207Z,11.3
2022-11-05T23:40:00.187Z,11.2
2022-11-05T23:45:00.194Z,11.2
2022-11-05T23:50:00.224Z,11.3
2022-11-05T23:55:00.394Z,11.3
